sensor_id;sensor_type;location;lat;lon;timestamp;P1;durP1;ratioP1;P2;durP2;ratioP2
84860;SDS011;75116;42.644;23.274;2024-01-30T00:04:48;6.43;;;4.40;;
84860;SDS011;75116;42.644;23.274;2024-01-30T00:07:13;4.45;;;3.20;;
84860;SDS011;75116;42.644;23.274;2024-01-30T00:09:39;5.88;;;3.42;;
84860;SDS011;75116;42.644;23.274;2024-01-30T00:14:31;9.20;;;4.68;;
84860;SDS011;75116;42.644;23.274;2024-01-30T00:19:22;8.63;;;3.95;;
84860;SDS011;75116;42.644;23.274;2024-01-30T00:21:47;4.93;;;2.92;;
84860;SDS011;75116;42.644;23.274;2024-01-30T00:24:13;5.90;;;3.85;;
84860;SDS011;75116;42.644;23.274;2024-01-30T00:26:38;5.50;;;3.33;;
84860;SDS011;75116;42.644;23.274;2024-01-30T00:31:29;3.80;;;3.08;;
84860;SDS011;75116;42.644;23.274;2024-01-30T00:33:55;5.47;;;2.92;;
84860;SDS011;75116;42.644;23.274;2024-01-30T00:38:46;2.92;;;2.67;;
84860;SDS011;75116;42.644;23.274;2024-01-30T00:43:38;15.98;;;5.45;;
84860;SDS011;75116;42.644;23.274;2024-01-30T00:46:03;6.22;;;3.30;;
84860;SDS011;75116;42.644;23.274;2024-01-30T00:48:29;8.05;;;4.75;;
84860;SDS011;75116;42.644;23.274;2024-01-30T00:50:54;8.50;;;4.97;;
84860;SDS011;75116;42.644;23.274;2024-01-30T00:53:20;7.25;;;3.40;;
84860;SDS011;75116;42.644;23.274;2024-01-30T00:55:45;3.55;;;2.75;;
84860;SDS011;75116;42.644;23.274;2024-01-30T00:58:11;5.13;;;3.05;;
84860;SDS011;75116;42.644;23.274;2024-01-30T01:00:36;11.00;;;4.07;;
84860;SDS011;75116;42.644;23.274;2024-01-30T01:03:02;5.70;;;3.53;;
84860;SDS011;75116;42.644;23.274;2024-01-30T01:05:28;3.63;;;1.83;;
84860;SDS011;75116;42.644;23.274;2024-01-30T01:07:53;4.47;;;3.30;;
84860;SDS011;75116;42.644;23.274;2024-01-30T01:10:19;4.82;;;2.08;;
84860;SDS011;75116;42.644;23.274;2024-01-30T01:12:45;4.50;;;3.35;;
84860;SDS011;75116;42.644;23.274;2024-01-30T01:15:11;3.20;;;2.40;;
84860;SDS011;75116;42.644;23.274;2024-01-30T01:17:37;3.60;;;2.22;;
84860;SDS011;75116;42.644;23.274;2024-01-30T01:20:03;5.63;;;2.50;;
84860;SDS011;75116;42.644;23.274;2024-01-30T01:22:30;3.95;;;3.17;;
84860;SDS011;75116;42.644;23.274;2024-01-30T01:24:56;2.38;;;1.83;;
84860;SDS011;75116;42.644;23.274;2024-01-30T01:27:21;2.08;;;1.95;;
84860;SDS011;75116;42.644;23.274;2024-01-30T01:29:47;5.15;;;3.45;;
84860;SDS011;75116;42.644;23.274;2024-01-30T01:32:12;7.53;;;4.70;;
84860;SDS011;75116;42.644;23.274;2024-01-30T01:34:38;9.98;;;4.63;;
84860;SDS011;75116;42.644;23.274;2024-01-30T01:37:03;6.00;;;3.50;;
84860;SDS011;75116;42.644;23.274;2024-01-30T01:39:29;3.03;;;2.28;;
84860;SDS011;75116;42.644;23.274;2024-01-30T01:41:54;7.07;;;3.67;;
84860;SDS011;75116;42.644;23.274;2024-01-30T01:44:20;5.05;;;2.45;;
84860;SDS011;75116;42.644;23.274;2024-01-30T01:46:45;5.70;;;2.80;;
84860;SDS011;75116;42.644;23.274;2024-01-30T01:49:11;4.32;;;2.65;;
84860;SDS011;75116;42.644;23.274;2024-01-30T01:51:37;5.47;;;2.90;;
84860;SDS011;75116;42.644;23.274;2024-01-30T01:54:06;6.60;;;4.38;;
84860;SDS011;75116;42.644;23.274;2024-01-30T01:56:33;2.65;;;1.77;;
84860;SDS011;75116;42.644;23.274;2024-01-30T01:59:00;1.95;;;1.85;;
84860;SDS011;75116;42.644;23.274;2024-01-30T02:01:37;2.47;;;2.25;;
84860;SDS011;75116;42.644;23.274;2024-01-30T02:04:04;2.67;;;1.77;;
84860;SDS011;75116;42.644;23.274;2024-01-30T02:06:29;2.53;;;2.33;;
84860;SDS011;75116;42.644;23.274;2024-01-30T02:11:21;2.72;;;1.90;;
84860;SDS011;75116;42.644;23.274;2024-01-30T02:13:48;4.07;;;2.85;;
84860;SDS011;75116;42.644;23.274;2024-01-30T02:16:14;4.07;;;3.22;;
84860;SDS011;75116;42.644;23.274;2024-01-30T02:18:39;2.72;;;2.00;;
84860;SDS011;75116;42.644;23.274;2024-01-30T02:21:10;5.15;;;1.85;;
84860;SDS011;75116;42.644;23.274;2024-01-30T02:23:36;2.22;;;1.80;;
84860;SDS011;75116;42.644;23.274;2024-01-30T02:26:02;6.32;;;3.40;;
84860;SDS011;75116;42.644;23.274;2024-01-30T02:28:28;1.70;;;1.25;;
84860;SDS011;75116;42.644;23.274;2024-01-30T02:30:53;2.60;;;1.90;;
84860;SDS011;75116;42.644;23.274;2024-01-30T02:33:19;2.72;;;2.35;;
84860;SDS011;75116;42.644;23.274;2024-01-30T02:35:46;3.65;;;2.17;;
84860;SDS011;75116;42.644;23.274;2024-01-30T02:38:12;4.18;;;2.10;;
84860;SDS011;75116;42.644;23.274;2024-01-30T02:40:38;5.63;;;2.70;;
84860;SDS011;75116;42.644;23.274;2024-01-30T02:43:03;2.75;;;2.00;;
84860;SDS011;75116;42.644;23.274;2024-01-30T02:45:29;3.65;;;3.05;;
84860;SDS011;75116;42.644;23.274;2024-01-30T02:47:54;4.35;;;3.05;;
84860;SDS011;75116;42.644;23.274;2024-01-30T02:50:20;5.57;;;3.67;;
84860;SDS011;75116;42.644;23.274;2024-01-30T02:52:45;5.53;;;4.45;;
84860;SDS011;75116;42.644;23.274;2024-01-30T02:55:11;6.03;;;2.33;;
84860;SDS011;75116;42.644;23.274;2024-01-30T02:57:37;2.72;;;2.03;;
84860;SDS011;75116;42.644;23.274;2024-01-30T03:00:03;5.93;;;4.05;;
84860;SDS011;75116;42.644;23.274;2024-01-30T03:02:31;6.88;;;3.25;;
84860;SDS011;75116;42.644;23.274;2024-01-30T03:04:57;5.97;;;2.97;;
84860;SDS011;75116;42.644;23.274;2024-01-30T03:07:23;7.07;;;3.80;;
84860;SDS011;75116;42.644;23.274;2024-01-30T03:09:48;1.27;;;0.95;;
84860;SDS011;75116;42.644;23.274;2024-01-30T03:12:14;1.75;;;1.27;;
84860;SDS011;75116;42.644;23.274;2024-01-30T03:14:40;3.85;;;2.50;;
84860;SDS011;75116;42.644;23.274;2024-01-30T03:17:05;3.63;;;2.42;;
84860;SDS011;75116;42.644;23.274;2024-01-30T03:19:31;1.65;;;1.30;;
84860;SDS011;75116;42.644;23.274;2024-01-30T03:21:56;3.63;;;2.65;;
84860;SDS011;75116;42.644;23.274;2024-01-30T03:24:22;4.88;;;3.42;;
84860;SDS011;75116;42.644;23.274;2024-01-30T03:26:47;4.20;;;2.80;;
84860;SDS011;75116;42.644;23.274;2024-01-30T03:29:13;4.85;;;3.70;;
84860;SDS011;75116;42.644;23.274;2024-01-30T03:31:38;4.10;;;2.58;;
84860;SDS011;75116;42.644;23.274;2024-01-30T03:34:04;2.58;;;2.38;;
84860;SDS011;75116;42.644;23.274;2024-01-30T03:36:30;3.65;;;3.00;;
84860;SDS011;75116;42.644;23.274;2024-01-30T03:38:58;2.85;;;1.60;;
84860;SDS011;75116;42.644;23.274;2024-01-30T03:41:23;7.22;;;4.53;;
84860;SDS011;75116;42.644;23.274;2024-01-30T03:43:49;5.70;;;2.90;;
84860;SDS011;75116;42.644;23.274;2024-01-30T03:46:15;6.18;;;4.65;;
84860;SDS011;75116;42.644;23.274;2024-01-30T03:48:40;4.93;;;2.05;;
84860;SDS011;75116;42.644;23.274;2024-01-30T03:51:06;5.22;;;3.88;;
84860;SDS011;75116;42.644;23.274;2024-01-30T03:53:31;1.10;;;0.68;;
84860;SDS011;75116;42.644;23.274;2024-01-30T03:55:57;2.05;;;1.83;;
84860;SDS011;75116;42.644;23.274;2024-01-30T03:58:22;1.25;;;1.15;;
84860;SDS011;75116;42.644;23.274;2024-01-30T04:00:48;2.53;;;1.90;;
84860;SDS011;75116;42.644;23.274;2024-01-30T04:03:14;2.03;;;1.52;;
84860;SDS011;75116;42.644;23.274;2024-01-30T04:05:43;4.32;;;2.55;;
84860;SDS011;75116;42.644;23.274;2024-01-30T04:08:09;2.88;;;2.50;;
84860;SDS011;75116;42.644;23.274;2024-01-30T04:10:34;2.00;;;1.90;;
84860;SDS011;75116;42.644;23.274;2024-01-30T04:13:00;4.50;;;2.45;;
84860;SDS011;75116;42.644;23.274;2024-01-30T04:15:26;3.05;;;1.67;;
84860;SDS011;75116;42.644;23.274;2024-01-30T04:17:53;6.60;;;1.50;;
84860;SDS011;75116;42.644;23.274;2024-01-30T04:20:18;2.22;;;1.77;;
84860;SDS011;75116;42.644;23.274;2024-01-30T04:22:44;1.77;;;1.58;;
84860;SDS011;75116;42.644;23.274;2024-01-30T04:27:36;2.72;;;2.47;;
84860;SDS011;75116;42.644;23.274;2024-01-30T04:30:01;0.80;;;0.80;;
84860;SDS011;75116;42.644;23.274;2024-01-30T04:32:27;1.73;;;1.63;;
84860;SDS011;75116;42.644;23.274;2024-01-30T04:34:52;2.40;;;2.20;;
84860;SDS011;75116;42.644;23.274;2024-01-30T04:37:18;1.95;;;1.58;;
84860;SDS011;75116;42.644;23.274;2024-01-30T04:39:43;1.80;;;1.67;;
84860;SDS011;75116;42.644;23.274;2024-01-30T04:42:09;3.35;;;2.47;;
84860;SDS011;75116;42.644;23.274;2024-01-30T04:44:34;4.03;;;2.33;;
84860;SDS011;75116;42.644;23.274;2024-01-30T04:47:00;4.30;;;3.67;;
84860;SDS011;75116;42.644;23.274;2024-01-30T04:49:26;1.67;;;1.45;;
84860;SDS011;75116;42.644;23.274;2024-01-30T04:54:18;1.05;;;1.02;;
84860;SDS011;75116;42.644;23.274;2024-01-30T04:56:43;1.35;;;0.93;;
84860;SDS011;75116;42.644;23.274;2024-01-30T04:59:09;3.65;;;1.85;;
84860;SDS011;75116;42.644;23.274;2024-01-30T05:01:34;2.40;;;1.95;;
84860;SDS011;75116;42.644;23.274;2024-01-30T05:03:59;4.22;;;2.60;;
84860;SDS011;75116;42.644;23.274;2024-01-30T05:06:26;8.90;;;4.50;;
84860;SDS011;75116;42.644;23.274;2024-01-30T05:08:52;8.63;;;4.28;;
84860;SDS011;75116;42.644;23.274;2024-01-30T05:11:18;11.60;;;2.53;;
84860;SDS011;75116;42.644;23.274;2024-01-30T05:13:43;3.78;;;2.25;;
84860;SDS011;75116;42.644;23.274;2024-01-30T05:16:09;2.85;;;2.08;;
84860;SDS011;75116;42.644;23.274;2024-01-30T05:18:34;2.35;;;2.15;;
84860;SDS011;75116;42.644;23.274;2024-01-30T05:21:00;2.72;;;1.95;;
84860;SDS011;75116;42.644;23.274;2024-01-30T05:23:27;2.63;;;1.50;;
84860;SDS011;75116;42.644;23.274;2024-01-30T05:25:52;3.08;;;2.35;;
84860;SDS011;75116;42.644;23.274;2024-01-30T05:28:18;1.63;;;1.50;;
84860;SDS011;75116;42.644;23.274;2024-01-30T05:30:43;1.67;;;1.58;;
84860;SDS011;75116;42.644;23.274;2024-01-30T05:33:09;1.55;;;1.15;;
84860;SDS011;75116;42.644;23.274;2024-01-30T05:35:34;4.10;;;2.15;;
84860;SDS011;75116;42.644;23.274;2024-01-30T05:38:00;1.42;;;1.20;;
84860;SDS011;75116;42.644;23.274;2024-01-30T05:40:25;5.22;;;2.55;;
84860;SDS011;75116;42.644;23.274;2024-01-30T05:42:51;5.68;;;3.08;;
84860;SDS011;75116;42.644;23.274;2024-01-30T05:45:16;4.22;;;2.90;;
84860;SDS011;75116;42.644;23.274;2024-01-30T05:47:42;5.35;;;3.15;;
84860;SDS011;75116;42.644;23.274;2024-01-30T05:50:07;1.20;;;1.13;;
84860;SDS011;75116;42.644;23.274;2024-01-30T05:52:33;5.82;;;3.63;;
84860;SDS011;75116;42.644;23.274;2024-01-30T05:54:58;2.75;;;1.50;;
84860;SDS011;75116;42.644;23.274;2024-01-30T05:57:24;5.53;;;2.97;;
84860;SDS011;75116;42.644;23.274;2024-01-30T05:59:50;3.60;;;1.92;;
84860;SDS011;75116;42.644;23.274;2024-01-30T06:02:17;1.35;;;1.02;;
84860;SDS011;75116;42.644;23.274;2024-01-30T06:04:42;5.63;;;2.88;;
84860;SDS011;75116;42.644;23.274;2024-01-30T06:07:09;9.00;;;3.72;;
84860;SDS011;75116;42.644;23.274;2024-01-30T06:09:35;10.02;;;4.57;;
84860;SDS011;75116;42.644;23.274;2024-01-30T06:12:00;2.70;;;2.40;;
84860;SDS011;75116;42.644;23.274;2024-01-30T06:14:26;1.75;;;1.63;;
84860;SDS011;75116;42.644;23.274;2024-01-30T06:16:51;3.78;;;2.28;;
84860;SDS011;75116;42.644;23.274;2024-01-30T06:19:17;2.97;;;1.58;;
84860;SDS011;75116;42.644;23.274;2024-01-30T06:21:42;1.38;;;1.23;;
84860;SDS011;75116;42.644;23.274;2024-01-30T06:24:07;2.88;;;2.35;;
84860;SDS011;75116;42.644;23.274;2024-01-30T06:26:34;5.00;;;3.70;;
84860;SDS011;75116;42.644;23.274;2024-01-30T06:28:59;3.47;;;3.00;;
84860;SDS011;75116;42.644;23.274;2024-01-30T06:31:25;3.75;;;3.40;;
84860;SDS011;75116;42.644;23.274;2024-01-30T06:33:50;3.22;;;2.17;;
84860;SDS011;75116;42.644;23.274;2024-01-30T06:36:16;3.22;;;2.78;;
84860;SDS011;75116;42.644;23.274;2024-01-30T06:38:41;4.18;;;2.10;;
84860;SDS011;75116;42.644;23.274;2024-01-30T06:41:07;3.90;;;2.70;;
84860;SDS011;75116;42.644;23.274;2024-01-30T06:43:32;4.20;;;3.10;;
84860;SDS011;75116;42.644;23.274;2024-01-30T06:45:58;6.85;;;3.97;;
84860;SDS011;75116;42.644;23.274;2024-01-30T06:48:24;3.95;;;2.00;;
84860;SDS011;75116;42.644;23.274;2024-01-30T06:50:50;4.40;;;3.53;;
84860;SDS011;75116;42.644;23.274;2024-01-30T06:53:18;4.90;;;3.25;;
84860;SDS011;75116;42.644;23.274;2024-01-30T06:55:44;2.92;;;2.33;;
84860;SDS011;75116;42.644;23.274;2024-01-30T06:58:10;5.82;;;4.47;;
84860;SDS011;75116;42.644;23.274;2024-01-30T07:00:35;9.52;;;3.55;;
84860;SDS011;75116;42.644;23.274;2024-01-30T07:03:01;4.60;;;2.10;;
84860;SDS011;75116;42.644;23.274;2024-01-30T07:05:27;4.78;;;2.22;;
84860;SDS011;75116;42.644;23.274;2024-01-30T07:07:52;2.13;;;1.88;;
84860;SDS011;75116;42.644;23.274;2024-01-30T07:10:18;2.90;;;2.40;;
84860;SDS011;75116;42.644;23.274;2024-01-30T07:15:08;2.58;;;1.73;;
84860;SDS011;75116;42.644;23.274;2024-01-30T07:20:00;3.45;;;2.15;;
84860;SDS011;75116;42.644;23.274;2024-01-30T07:22:28;4.47;;;2.28;;
84860;SDS011;75116;42.644;23.274;2024-01-30T07:24:55;5.03;;;2.05;;
84860;SDS011;75116;42.644;23.274;2024-01-30T07:29:46;2.10;;;1.90;;
84860;SDS011;75116;42.644;23.274;2024-01-30T07:34:37;1.38;;;1.05;;
84860;SDS011;75116;42.644;23.274;2024-01-30T07:39:28;7.13;;;1.27;;
84860;SDS011;75116;42.644;23.274;2024-01-30T07:41:53;2.58;;;1.95;;
84860;SDS011;75116;42.644;23.274;2024-01-30T07:46:45;2.60;;;1.65;;
84860;SDS011;75116;42.644;23.274;2024-01-30T07:51:36;2.95;;;2.05;;
84860;SDS011;75116;42.644;23.274;2024-01-30T07:54:01;1.80;;;1.40;;
84860;SDS011;75116;42.644;23.274;2024-01-30T07:58:52;1.02;;;0.82;;
84860;SDS011;75116;42.644;23.274;2024-01-30T08:01:18;1.77;;;1.10;;
84860;SDS011;75116;42.644;23.274;2024-01-30T08:03:44;1.85;;;1.35;;
84860;SDS011;75116;42.644;23.274;2024-01-30T08:06:09;1.35;;;0.88;;
84860;SDS011;75116;42.644;23.274;2024-01-30T08:08:35;3.00;;;2.00;;
84860;SDS011;75116;42.644;23.274;2024-01-30T08:11:00;2.45;;;2.00;;
84860;SDS011;75116;42.644;23.274;2024-01-30T08:13:26;2.65;;;2.05;;
84860;SDS011;75116;42.644;23.274;2024-01-30T08:18:17;2.85;;;1.58;;
84860;SDS011;75116;42.644;23.274;2024-01-30T08:20:42;3.55;;;2.30;;
84860;SDS011;75116;42.644;23.274;2024-01-30T08:23:08;4.72;;;2.15;;
84860;SDS011;75116;42.644;23.274;2024-01-30T08:27:58;2.83;;;2.00;;
84860;SDS011;75116;42.644;23.274;2024-01-30T08:30:25;2.15;;;1.42;;
84860;SDS011;75116;42.644;23.274;2024-01-30T08:32:50;4.00;;;1.80;;
84860;SDS011;75116;42.644;23.274;2024-01-30T08:35:16;2.35;;;2.10;;
84860;SDS011;75116;42.644;23.274;2024-01-30T08:37:41;1.27;;;1.17;;
84860;SDS011;75116;42.644;23.274;2024-01-30T08:40:07;3.13;;;1.60;;
84860;SDS011;75116;42.644;23.274;2024-01-30T08:42:36;4.03;;;2.08;;
84860;SDS011;75116;42.644;23.274;2024-01-30T08:45:02;1.70;;;1.52;;
84860;SDS011;75116;42.644;23.274;2024-01-30T08:47:29;2.90;;;1.95;;
84860;SDS011;75116;42.644;23.274;2024-01-30T08:49:55;2.90;;;2.08;;
84860;SDS011;75116;42.644;23.274;2024-01-30T08:54:46;3.20;;;2.15;;
84860;SDS011;75116;42.644;23.274;2024-01-30T08:57:11;1.60;;;1.50;;
84860;SDS011;75116;42.644;23.274;2024-01-30T08:59:37;1.92;;;1.77;;
84860;SDS011;75116;42.644;23.274;2024-01-30T09:04:28;4.18;;;1.88;;
84860;SDS011;75116;42.644;23.274;2024-01-30T09:06:54;1.90;;;1.80;;
84860;SDS011;75116;42.644;23.274;2024-01-30T09:09:20;4.55;;;2.90;;
84860;SDS011;75116;42.644;23.274;2024-01-30T09:11:45;3.88;;;3.00;;
84860;SDS011;75116;42.644;23.274;2024-01-30T09:14:11;3.42;;;2.92;;
84860;SDS011;75116;42.644;23.274;2024-01-30T09:16:37;3.97;;;2.25;;
84860;SDS011;75116;42.644;23.274;2024-01-30T09:19:02;3.65;;;3.22;;
84860;SDS011;75116;42.644;23.274;2024-01-30T09:21:28;2.05;;;1.48;;
84860;SDS011;75116;42.644;23.274;2024-01-30T09:26:28;2.63;;;2.38;;
84860;SDS011;75116;42.644;23.274;2024-01-30T09:28:53;4.53;;;2.10;;
84860;SDS011;75116;42.644;23.274;2024-01-30T09:33:44;3.47;;;2.90;;
84860;SDS011;75116;42.644;23.274;2024-01-30T09:36:12;11.90;;;2.95;;
84860;SDS011;75116;42.644;23.274;2024-01-30T09:38:40;2.00;;;1.50;;
84860;SDS011;75116;42.644;23.274;2024-01-30T09:43:34;6.35;;;2.92;;
84860;SDS011;75116;42.644;23.274;2024-01-30T09:46:00;5.18;;;3.72;;
84860;SDS011;75116;42.644;23.274;2024-01-30T09:48:28;3.00;;;2.22;;
84860;SDS011;75116;42.644;23.274;2024-01-30T09:50:55;1.85;;;1.75;;
84860;SDS011;75116;42.644;23.274;2024-01-30T09:53:22;4.78;;;3.20;;
84860;SDS011;75116;42.644;23.274;2024-01-30T09:55:48;4.38;;;1.90;;
84860;SDS011;75116;42.644;23.274;2024-01-30T09:58:15;6.32;;;3.80;;
84860;SDS011;75116;42.644;23.274;2024-01-30T10:00:41;2.42;;;0.95;;
84860;SDS011;75116;42.644;23.274;2024-01-30T10:03:07;5.07;;;4.57;;
84860;SDS011;75116;42.644;23.274;2024-01-30T10:05:34;8.02;;;4.60;;
84860;SDS011;75116;42.644;23.274;2024-01-30T10:08:05;2.05;;;1.40;;
84860;SDS011;75116;42.644;23.274;2024-01-30T10:10:31;3.08;;;2.25;;
84860;SDS011;75116;42.644;23.274;2024-01-30T10:12:57;5.18;;;4.18;;
84860;SDS011;75116;42.644;23.274;2024-01-30T10:17:49;5.53;;;2.47;;
84860;SDS011;75116;42.644;23.274;2024-01-30T10:20:14;1.88;;;1.25;;
84860;SDS011;75116;42.644;23.274;2024-01-30T10:22:43;3.25;;;1.85;;
84860;SDS011;75116;42.644;23.274;2024-01-30T10:25:10;2.13;;;1.33;;
84860;SDS011;75116;42.644;23.274;2024-01-30T10:27:36;3.50;;;2.72;;
84860;SDS011;75116;42.644;23.274;2024-01-30T10:30:04;2.67;;;1.42;;
84860;SDS011;75116;42.644;23.274;2024-01-30T10:32:30;3.90;;;3.13;;
84860;SDS011;75116;42.644;23.274;2024-01-30T10:34:56;9.18;;;4.80;;
84860;SDS011;75116;42.644;23.274;2024-01-30T10:37:21;4.63;;;3.17;;
84860;SDS011;75116;42.644;23.274;2024-01-30T10:39:50;3.92;;;3.50;;
84860;SDS011;75116;42.644;23.274;2024-01-30T10:42:20;6.30;;;4.40;;
84860;SDS011;75116;42.644;23.274;2024-01-30T10:47:37;6.35;;;4.00;;
84860;SDS011;75116;42.644;23.274;2024-01-30T10:50:05;4.22;;;3.33;;
84860;SDS011;75116;42.644;23.274;2024-01-30T10:52:33;2.33;;;1.65;;
84860;SDS011;75116;42.644;23.274;2024-01-30T10:57:24;7.53;;;3.80;;
84860;SDS011;75116;42.644;23.274;2024-01-30T10:59:52;5.45;;;3.15;;
84860;SDS011;75116;42.644;23.274;2024-01-30T11:02:21;2.97;;;1.98;;
84860;SDS011;75116;42.644;23.274;2024-01-30T11:04:49;7.20;;;3.10;;
84860;SDS011;75116;42.644;23.274;2024-01-30T11:09:41;6.57;;;4.88;;
84860;SDS011;75116;42.644;23.274;2024-01-30T11:12:13;6.38;;;2.45;;
84860;SDS011;75116;42.644;23.274;2024-01-30T11:17:05;5.63;;;3.33;;
84860;SDS011;75116;42.644;23.274;2024-01-30T11:21:56;3.03;;;2.28;;
84860;SDS011;75116;42.644;23.274;2024-01-30T11:24:22;3.13;;;2.22;;
84860;SDS011;75116;42.644;23.274;2024-01-30T11:26:49;3.72;;;2.65;;
84860;SDS011;75116;42.644;23.274;2024-01-30T11:29:24;5.28;;;4.07;;
84860;SDS011;75116;42.644;23.274;2024-01-30T11:31:53;4.65;;;4.13;;
84860;SDS011;75116;42.644;23.274;2024-01-30T11:34:23;6.72;;;4.57;;
84860;SDS011;75116;42.644;23.274;2024-01-30T11:36:53;8.07;;;3.20;;
84860;SDS011;75116;42.644;23.274;2024-01-30T11:39:26;5.25;;;2.53;;
84860;SDS011;75116;42.644;23.274;2024-01-30T11:41:52;4.18;;;2.63;;
84860;SDS011;75116;42.644;23.274;2024-01-30T11:44:19;5.13;;;2.72;;
84860;SDS011;75116;42.644;23.274;2024-01-30T11:46:46;2.35;;;1.90;;
84860;SDS011;75116;42.644;23.274;2024-01-30T11:49:16;4.47;;;3.00;;
84860;SDS011;75116;42.644;23.274;2024-01-30T11:51:47;4.40;;;3.17;;
84860;SDS011;75116;42.644;23.274;2024-01-30T11:54:17;2.65;;;2.05;;
84860;SDS011;75116;42.644;23.274;2024-01-30T11:59:08;1.77;;;1.63;;
84860;SDS011;75116;42.644;23.274;2024-01-30T12:03:59;2.83;;;2.13;;
84860;SDS011;75116;42.644;23.274;2024-01-30T12:08:57;3.40;;;2.33;;
84860;SDS011;75116;42.644;23.274;2024-01-30T12:11:28;5.25;;;3.92;;
84860;SDS011;75116;42.644;23.274;2024-01-30T12:13:55;4.45;;;3.20;;
84860;SDS011;75116;42.644;23.274;2024-01-30T12:16:21;4.80;;;3.25;;
84860;SDS011;75116;42.644;23.274;2024-01-30T12:18:47;1.85;;;1.75;;
84860;SDS011;75116;42.644;23.274;2024-01-30T12:21:15;3.92;;;3.17;;
84860;SDS011;75116;42.644;23.274;2024-01-30T12:23:41;3.10;;;2.22;;
84860;SDS011;75116;42.644;23.274;2024-01-30T12:26:08;5.55;;;2.85;;
84860;SDS011;75116;42.644;23.274;2024-01-30T12:31:02;5.20;;;1.83;;
84860;SDS011;75116;42.644;23.274;2024-01-30T12:33:28;4.03;;;2.78;;
84860;SDS011;75116;42.644;23.274;2024-01-30T12:35:54;4.90;;;3.00;;
84860;SDS011;75116;42.644;23.274;2024-01-30T12:38:20;3.28;;;2.67;;
84860;SDS011;75116;42.644;23.274;2024-01-30T12:43:13;2.15;;;1.88;;
84860;SDS011;75116;42.644;23.274;2024-01-30T12:45:39;5.10;;;3.33;;
84860;SDS011;75116;42.644;23.274;2024-01-30T12:50:30;2.80;;;2.17;;
84860;SDS011;75116;42.644;23.274;2024-01-30T12:55:21;2.95;;;2.33;;
84860;SDS011;75116;42.644;23.274;2024-01-30T13:00:12;3.10;;;2.55;;
84860;SDS011;75116;42.644;23.274;2024-01-30T13:05:03;2.60;;;1.63;;
84860;SDS011;75116;42.644;23.274;2024-01-30T13:07:29;4.95;;;2.83;;
84860;SDS011;75116;42.644;23.274;2024-01-30T13:12:21;8.38;;;5.13;;
84860;SDS011;75116;42.644;23.274;2024-01-30T13:17:12;8.13;;;3.30;;
84860;SDS011;75116;42.644;23.274;2024-01-30T13:22:03;3.47;;;2.08;;
84860;SDS011;75116;42.644;23.274;2024-01-30T13:26:54;4.60;;;3.67;;
84860;SDS011;75116;42.644;23.274;2024-01-30T13:31:45;6.90;;;3.67;;
84860;SDS011;75116;42.644;23.274;2024-01-30T13:34:11;6.70;;;3.03;;
84860;SDS011;75116;42.644;23.274;2024-01-30T13:36:39;3.42;;;2.78;;
84860;SDS011;75116;42.644;23.274;2024-01-30T13:39:04;6.85;;;3.65;;
84860;SDS011;75116;42.644;23.274;2024-01-30T13:41:35;4.70;;;2.63;;
84860;SDS011;75116;42.644;23.274;2024-01-30T13:44:03;3.35;;;2.95;;
84860;SDS011;75116;42.644;23.274;2024-01-30T13:48:54;5.78;;;3.33;;
84860;SDS011;75116;42.644;23.274;2024-01-30T13:53:45;2.88;;;2.50;;
84860;SDS011;75116;42.644;23.274;2024-01-30T13:58:36;4.50;;;2.58;;
84860;SDS011;75116;42.644;23.274;2024-01-30T14:03:27;4.78;;;3.22;;
84860;SDS011;75116;42.644;23.274;2024-01-30T14:08:18;6.80;;;3.78;;
84860;SDS011;75116;42.644;23.274;2024-01-30T14:10:46;5.28;;;3.05;;
84860;SDS011;75116;42.644;23.274;2024-01-30T14:15:38;3.67;;;3.17;;
84860;SDS011;75116;42.644;23.274;2024-01-30T14:18:03;4.75;;;2.72;;
84860;SDS011;75116;42.644;23.274;2024-01-30T14:20:30;1.90;;;1.67;;
84860;SDS011;75116;42.644;23.274;2024-01-30T14:27:47;3.88;;;1.70;;
84860;SDS011;75116;42.644;23.274;2024-01-30T14:30:12;1.55;;;1.45;;
84860;SDS011;75116;42.644;23.274;2024-01-30T14:35:05;5.80;;;3.10;;
84860;SDS011;75116;42.644;23.274;2024-01-30T14:39:56;4.85;;;3.88;;
84860;SDS011;75116;42.644;23.274;2024-01-30T14:42:22;4.65;;;2.75;;
84860;SDS011;75116;42.644;23.274;2024-01-30T14:52:04;8.85;;;7.90;;
84860;SDS011;75116;42.644;23.274;2024-01-30T14:56:55;11.25;;;6.75;;
84860;SDS011;75116;42.644;23.274;2024-01-30T14:59:22;16.05;;;10.07;;
84860;SDS011;75116;42.644;23.274;2024-01-30T15:04:13;9.27;;;4.65;;
84860;SDS011;75116;42.644;23.274;2024-01-30T15:09:10;10.52;;;6.03;;
84860;SDS011;75116;42.644;23.274;2024-01-30T15:11:36;13.45;;;8.07;;
84860;SDS011;75116;42.644;23.274;2024-01-30T15:16:27;10.07;;;5.57;;
84860;SDS011;75116;42.644;23.274;2024-01-30T15:23:47;8.68;;;5.20;;
84860;SDS011;75116;42.644;23.274;2024-01-30T15:28:38;13.93;;;6.32;;
84860;SDS011;75116;42.644;23.274;2024-01-30T15:31:04;18.98;;;9.65;;
84860;SDS011;75116;42.644;23.274;2024-01-30T15:33:31;16.33;;;9.32;;
84860;SDS011;75116;42.644;23.274;2024-01-30T15:35:58;17.02;;;8.32;;
84860;SDS011;75116;42.644;23.274;2024-01-30T15:38:25;9.63;;;5.80;;
84860;SDS011;75116;42.644;23.274;2024-01-30T15:40:52;9.23;;;6.07;;
84860;SDS011;75116;42.644;23.274;2024-01-30T15:43:17;11.65;;;5.65;;
84860;SDS011;75116;42.644;23.274;2024-01-30T15:45:43;22.33;;;10.32;;
84860;SDS011;75116;42.644;23.274;2024-01-30T15:48:09;19.27;;;10.90;;
84860;SDS011;75116;42.644;23.274;2024-01-30T15:50:34;17.70;;;10.32;;
84860;SDS011;75116;42.644;23.274;2024-01-30T15:53:02;12.13;;;6.70;;
84860;SDS011;75116;42.644;23.274;2024-01-30T15:55:28;10.13;;;6.03;;
84860;SDS011;75116;42.644;23.274;2024-01-30T15:57:55;12.43;;;8.23;;
84860;SDS011;75116;42.644;23.274;2024-01-30T16:00:20;9.80;;;6.20;;
84860;SDS011;75116;42.644;23.274;2024-01-30T16:05:11;8.40;;;4.80;;
84860;SDS011;75116;42.644;23.274;2024-01-30T16:07:37;12.07;;;6.60;;
84860;SDS011;75116;42.644;23.274;2024-01-30T16:10:03;8.88;;;5.13;;
84860;SDS011;75116;42.644;23.274;2024-01-30T16:12:29;7.15;;;4.05;;
84860;SDS011;75116;42.644;23.274;2024-01-30T16:14:55;14.68;;;8.88;;
84860;SDS011;75116;42.644;23.274;2024-01-30T16:17:20;11.43;;;6.28;;
84860;SDS011;75116;42.644;23.274;2024-01-30T16:19:47;13.07;;;6.05;;
84860;SDS011;75116;42.644;23.274;2024-01-30T16:22:16;10.13;;;6.10;;
84860;SDS011;75116;42.644;23.274;2024-01-30T16:24:42;5.03;;;3.97;;
84860;SDS011;75116;42.644;23.274;2024-01-30T16:27:08;10.85;;;5.10;;
84860;SDS011;75116;42.644;23.274;2024-01-30T16:29:33;10.48;;;6.35;;
84860;SDS011;75116;42.644;23.274;2024-01-30T16:32:00;17.67;;;11.95;;
84860;SDS011;75116;42.644;23.274;2024-01-30T16:36:52;10.68;;;5.82;;
84860;SDS011;75116;42.644;23.274;2024-01-30T16:39:17;10.88;;;6.38;;
84860;SDS011;75116;42.644;23.274;2024-01-30T16:41:43;8.75;;;5.57;;
84860;SDS011;75116;42.644;23.274;2024-01-30T16:44:08;11.30;;;6.57;;
84860;SDS011;75116;42.644;23.274;2024-01-30T16:46:34;8.23;;;5.47;;
84860;SDS011;75116;42.644;23.274;2024-01-30T16:49:01;5.18;;;3.75;;
84860;SDS011;75116;42.644;23.274;2024-01-30T16:51:26;5.72;;;3.35;;
84860;SDS011;75116;42.644;23.274;2024-01-30T16:53:52;8.77;;;4.60;;
84860;SDS011;75116;42.644;23.274;2024-01-30T16:56:17;7.45;;;3.33;;
84860;SDS011;75116;42.644;23.274;2024-01-30T17:01:08;5.97;;;2.53;;
84860;SDS011;75116;42.644;23.274;2024-01-30T17:05:59;5.35;;;2.65;;
84860;SDS011;75116;42.644;23.274;2024-01-30T17:08:31;4.97;;;3.33;;
84860;SDS011;75116;42.644;23.274;2024-01-30T17:10:57;6.90;;;3.70;;
84860;SDS011;75116;42.644;23.274;2024-01-30T17:13:23;5.25;;;3.67;;